createdAt,value
2022-12-03T00:01:29.291Z,102415.66
2022-12-03T00:04:00.569Z,102417.56
2022-12-03T00:06:34.382Z,102417.91
2022-12-03T00:09:04.118Z,102410.94
2022-12-03T00:11:34.739Z,102414.31
2022-12-03T00:14:03.840Z,102417.09
2022-12-03T00:16:32.861Z,102418.03
2022-12-03T00:19:01.801Z,102420.78
2022-12-03T00:21:31.578Z,102421.16
2022-12-03T00:24:00.606Z,102420.53
2022-12-03T00:26:29.689Z,102421.41
2022-12-03T00:29:00.080Z,102427.97
2022-12-03T00:31:29.156Z,102424.84
2022-12-03T00:33:58.130Z,102427.28
2022-12-03T00:36:27.204Z,102429.72
2022-12-03T00:38:56.358Z,102429.66
2022-12-03T00:41:25.453Z,102428.03
2022-12-03T00:43:57.524Z,102432.78
2022-12-03T00:46:28.422Z,102426.47
2022-12-03T00:48:57.375Z,102428.97
2022-12-03T00:51:26.609Z,102430.53
2022-12-03T00:53:55.669Z,102427.97
2022-12-03T00:56:25.085Z,102432.97
2022-12-03T00:58:54.216Z,102441.34
2022-12-03T01:01:23.310Z,102440.06
2022-12-03T01:03:53.711Z,102444.16
2022-12-03T01:06:22.857Z,102440.66
2022-12-03T01:08:51.825Z,102447.59
2022-12-03T01:11:38.720Z,102448.78
2022-12-03T01:14:09.529Z,102445.66
2022-12-03T01:16:39.293Z,102452.59
2022-12-03T01:19:15.884Z,102451.28
2022-12-03T01:21:46.305Z,102456.66
2022-12-03T01:24:15.905Z,102452.16
2022-12-03T01:26:44.961Z,102450.28
2022-12-03T01:29:14.105Z,102454.75
2022-12-03T01:32:00.221Z,102452.53
2022-12-03T01:34:30.634Z,102448.63
2022-12-03T01:37:00.105Z,102453.66
2022-12-03T01:39:29.209Z,102452.44
2022-12-03T01:41:59.316Z,102454.84
2022-12-03T01:44:31.294Z,102452.88
2022-12-03T01:47:02.718Z,102458.50
2022-12-03T01:49:40.559Z,102466.63
2022-12-03T01:52:13.483Z,102460.63
2022-12-03T01:54:45.733Z,102469.75
2022-12-03T01:57:22.665Z,102468.50
2022-12-03T01:59:53.313Z,102462.84
2022-12-03T02:02:25.301Z,102481.94
2022-12-03T02:04:56.529Z,102471.63
2022-12-03T02:07:30.477Z,102471.59
2022-12-03T02:10:02.283Z,102472.78
2022-12-03T02:12:41.100Z,102484.59
2022-12-03T02:15:11.562Z,102473.91
2022-12-03T02:17:40.954Z,102479.19
2022-12-03T02:20:13.736Z,102478.25
2022-12-03T02:22:49.852Z,102482.88
2022-12-03T02:25:24.376Z,102481.31
2022-12-03T02:27:55.249Z,102484.13
2022-12-03T02:30:26.490Z,102488.50
2022-12-03T02:32:56.146Z,102489.38
2022-12-03T02:35:27.621Z,102484.28
2022-12-03T02:38:00.384Z,102487.03
2022-12-03T02:40:35.041Z,102486.69
2022-12-03T02:43:04.918Z,102484.69
2022-12-03T02:45:37.823Z,102486.53
2022-12-03T02:48:10.064Z,102492.72
2022-12-03T02:50:42.453Z,102489.88
2022-12-03T02:53:15.488Z,102497.63
2022-12-03T02:55:46.696Z,102493.75
2022-12-03T02:58:17.156Z,102493.75
2022-12-03T03:00:47.283Z,102508.09
2022-12-03T03:03:18.174Z,102504.25
2022-12-03T03:05:48.217Z,102504.25
2022-12-03T03:08:19.190Z,102508.41
2022-12-03T03:10:50.570Z,102505.22
2022-12-03T03:13:21.271Z,102507.38
2022-12-03T03:15:50.310Z,102514.28
2022-12-03T03:18:19.969Z,102508.66
2022-12-03T03:20:49.082Z,102512.38
2022-12-03T03:23:20.327Z,102513.56
2022-12-03T03:25:55.428Z,102507.28
2022-12-03T03:28:25.577Z,102520.50
2022-12-03T03:30:55.097Z,102521.06
2022-12-03T03:33:24.378Z,102517.63
2022-12-03T03:35:54.444Z,102520.50
2022-12-03T03:38:25.135Z,102518.56
2022-12-03T03:40:55.697Z,102527.38
2022-12-03T03:43:25.638Z,102527.47
2022-12-03T03:45:55.811Z,102533.41
2022-12-03T03:48:25.114Z,102531.25
2022-12-03T03:50:54.736Z,102532.56
2022-12-03T03:53:25.844Z,102536.38
2022-12-03T03:55:56.287Z,102538.97
2022-12-03T03:58:25.344Z,102539.06
2022-12-03T04:00:54.815Z,102544.63
2022-12-03T04:03:23.956Z,102538.44
2022-12-03T04:05:52.924Z,102533.44
2022-12-03T04:08:22.010Z,102541.03
2022-12-03T04:11:08.327Z,102539.84
2022-12-03T04:13:38.700Z,102539.84
2022-12-03T04:16:08.222Z,102542.50
2022-12-03T04:18:46.239Z,102544.41
2022-12-03T04:21:34.471Z,102553.31
2022-12-03T04:24:03.746Z,102550.28
2022-12-03T04:26:49.895Z,102552.53
2022-12-03T04:29:22.060Z,102545.19
2022-12-03T04:32:04.872Z,102558.03
2022-12-03T04:34:51.281Z,102550.38
2022-12-03T04:37:20.606Z,102550.44
2022-12-03T04:39:49.683Z,102557.53
2022-12-03T04:42:18.729Z,102556.56
2022-12-03T04:44:49.186Z,102556.69
2022-12-03T04:47:20.022Z,102561.13
2022-12-03T04:49:50.592Z,102559.88
2022-12-03T04:52:20.980Z,102561.91
2022-12-03T04:54:50.179Z,102560.94
2022-12-03T04:57:19.235Z,102563.53
2022-12-03T04:59:49.675Z,102561.44
2022-12-03T05:02:18.952Z,102564.56
2022-12-03T05:04:48.012Z,102568.16
2022-12-03T05:07:17.080Z,102570.75
2022-12-03T05:09:46.082Z,102564.88
2022-12-03T05:12:15.067Z,102572.41
2022-12-03T05:14:44.021Z,102567.84
2022-12-03T05:17:14.653Z,102567.53
2022-12-03T05:20:00.689Z,102570.41
2022-12-03T05:22:30.293Z,102579.66
2022-12-03T05:24:59.331Z,102578.41
2022-12-03T05:27:32.225Z,102573.84
2022-12-03T05:30:01.186Z,102574.25
2022-12-03T05:32:32.445Z,102579.94
2022-12-03T05:35:01.888Z,102577.50
2022-12-03T05:37:35.406Z,102579.84
2022-12-03T05:40:05.156Z,102587.16
2022-12-03T05:42:51.370Z,102571.31
2022-12-03T05:45:20.921Z,102582.56
2022-12-03T05:47:53.522Z,102581.16
2022-12-03T05:50:36.436Z,102579.69
2022-12-03T05:53:25.827Z,102578.13
2022-12-03T05:55:55.675Z,102581.44
2022-12-03T05:58:24.965Z,102584.41
2022-12-03T06:00:54.001Z,102578.53
2022-12-03T06:03:24.637Z,102578.81
2022-12-03T06:05:54.333Z,102576.81
2022-12-03T06:08:23.353Z,102577.94
2022-12-03T06:10:53.081Z,102574.50
2022-12-03T06:13:22.111Z,102579.56
2022-12-03T06:15:51.297Z,102581.34
2022-12-03T06:18:20.536Z,102580.69
2022-12-03T06:20:51.416Z,102578.78
2022-12-03T06:23:20.426Z,102578.81
2022-12-03T06:25:49.611Z,102580.78
2022-12-03T06:28:18.760Z,102572.00
2022-12-03T06:30:47.906Z,102573.38
2022-12-03T06:33:17.025Z,102571.56
2022-12-03T06:35:46.392Z,102575.97
2022-12-03T06:38:17.098Z,102577.19
2022-12-03T06:40:46.271Z,102575.97
2022-12-03T06:43:15.591Z,102566.97
2022-12-03T06:45:47.898Z,102571.72
2022-12-03T06:48:17.170Z,102576.47
2022-12-03T06:50:46.303Z,102554.81
2022-12-03T06:53:16.591Z,102569.25
2022-12-03T06:55:45.770Z,102576.16
2022-12-03T06:58:14.820Z,102573.44
2022-12-03T07:00:43.789Z,102565.63
2022-12-03T07:03:12.960Z,102571.03
2022-12-03T07:05:42.091Z,102578.06
2022-12-03T07:08:11.161Z,102571.22
2022-12-03T07:10:41.678Z,102565.34
2022-12-03T07:13:10.877Z,102566.63
2022-12-03T07:15:39.986Z,102571.72
2022-12-03T07:18:09.037Z,102565.84
2022-12-03T07:20:38.500Z,102573.53
2022-12-03T07:23:07.909Z,102568.91
2022-12-03T07:25:37.089Z,102568.31
2022-12-03T07:28:07.581Z,102571.50
2022-12-03T07:30:36.534Z,102562.72
2022-12-03T07:33:05.514Z,102567.91
2022-12-03T07:35:34.716Z,102558.53
2022-12-03T07:38:03.680Z,102551.09
2022-12-03T07:40:32.645Z,102554.88
2022-12-03T07:43:01.773Z,102557.09
2022-12-03T07:45:32.260Z,102547.94
2022-12-03T07:48:01.419Z,102550.81
2022-12-03T07:50:31.153Z,102552.44
2022-12-03T07:53:00.238Z,102548.72
2022-12-03T07:55:29.299Z,102540.50
2022-12-03T07:57:58.498Z,102542.47
2022-12-03T08:00:27.884Z,102550.72
2022-12-03T08:02:58.177Z,102552.00
2022-12-03T08:05:29.610Z,102546.63
2022-12-03T08:07:58.710Z,102547.28
2022-12-03T08:10:28.194Z,102554.53
2022-12-03T08:12:59.550Z,102542.25
2022-12-03T08:15:38.555Z,102545.13
2022-12-03T08:18:16.103Z,102541.97
2022-12-03T08:20:46.715Z,102550.81
2022-12-03T08:23:17.959Z,102550.16
2022-12-03T08:25:48.107Z,102547.94
2022-12-03T08:28:20.086Z,102543.22
2022-12-03T08:31:18.238Z,102532.84
2022-12-03T08:33:50.191Z,102532.47
2022-12-03T08:36:23.195Z,102529.97
2022-12-03T08:38:54.674Z,102530.56
2022-12-03T08:41:38.041Z,102523.59
2022-12-03T08:44:19.678Z,102526.44
2022-12-03T08:46:51.562Z,102514.44
2022-12-03T08:49:23.796Z,102522.31
2022-12-03T08:51:57.517Z,102524.19
2022-12-03T08:54:27.285Z,102525.41
2022-12-03T08:56:56.509Z,102525.81
2022-12-03T08:59:29.606Z,102528.00
2022-12-03T09:02:00.599Z,102522.00
2022-12-03T09:04:37.445Z,102535.59
2022-12-03T09:07:06.658Z,102530.56
2022-12-03T09:09:35.813Z,102529.25
2022-12-03T09:12:06.114Z,102517.91
2022-12-03T09:14:35.160Z,102522.97
2022-12-03T09:17:04.378Z,102524.56
2022-12-03T09:19:34.807Z,102526.44
2022-12-03T09:22:03.783Z,102523.56
2022-12-03T09:24:32.836Z,102530.50
2022-12-03T09:27:01.906Z,102524.19
2022-12-03T09:29:30.985Z,102520.34
2022-12-03T09:32:00.225Z,102522.47
2022-12-03T09:34:29.530Z,102516.78
2022-12-03T09:36:59.944Z,102527.22
2022-12-03T09:39:28.972Z,102523.41
2022-12-03T09:41:58.258Z,102522.78
2022-12-03T09:44:29.997Z,102524.03
2022-12-03T09:47:00.667Z,102524.94
2022-12-03T09:49:32.043Z,102521.78
2022-12-03T09:52:05.179Z,102520.78
2022-12-03T09:54:37.716Z,102527.38
2022-12-03T09:57:12.399Z,102525.22
2022-12-03T09:59:41.397Z,102519.81
2022-12-03T10:02:17.402Z,102525.50
2022-12-03T10:04:46.910Z,102515.63
2022-12-03T10:07:18.298Z,102517.78
2022-12-03T10:09:47.547Z,102515.59
2022-12-03T10:12:22.389Z,102513.66
2022-12-03T10:14:52.517Z,102513.34
2022-12-03T10:17:22.146Z,102512.47
2022-12-03T10:19:51.466Z,102519.03
2022-12-03T10:22:22.162Z,102518.63
2022-12-03T10:25:07.006Z,102513.63
2022-12-03T10:27:36.065Z,102507.28
2022-12-03T10:30:15.220Z,102509.44
2022-12-03T10:32:46.374Z,102509.44
2022-12-03T10:35:17.420Z,102507.91
2022-12-03T10:38:06.411Z,102508.25
2022-12-03T10:40:37.162Z,102515.50
2022-12-03T10:43:17.733Z,102513.59
2022-12-03T10:45:48.068Z,102511.75
2022-12-03T10:48:19.689Z,102510.44
2022-12-03T10:50:53.639Z,102509.75
2022-12-03T10:53:25.678Z,102509.69
2022-12-03T10:55:59.492Z,102514.16
2022-12-03T10:58:30.634Z,102508.41
2022-12-03T11:01:03.524Z,102511.69
2022-12-03T11:03:36.823Z,102517.41
2022-12-03T11:06:06.629Z,102514.19
2022-12-03T11:08:38.476Z,102515.50
2022-12-03T11:11:09.641Z,102517.69
2022-12-03T11:13:48.449Z,102524.94
2022-12-03T11:16:51.718Z,102520.56
2022-12-03T11:19:46.848Z,102518.56
2022-12-03T11:22:28.337Z,102525.78
2022-12-03T11:25:50.672Z,102517.25
2022-12-03T11:28:55.049Z,102515.38
2022-12-03T11:31:39.674Z,102513.84
2022-12-03T11:34:50.165Z,102513.84
2022-12-03T11:37:29.595Z,102515.19
2022-12-03T11:40:26.546Z,102524.34
2022-12-03T11:42:55.698Z,102511.69
2022-12-03T11:45:32.278Z,102521.81
2022-12-03T11:48:06.420Z,102525.31
2022-12-03T11:50:40.328Z,102519.63
2022-12-03T11:53:18.695Z,102520.25
2022-12-03T11:55:52.434Z,102518.03
2022-12-03T11:58:27.169Z,102516.72
2022-12-03T12:01:00.410Z,102514.50
2022-12-03T12:03:33.483Z,102518.00
2022-12-03T12:06:05.129Z,102515.75
2022-12-03T12:08:36.106Z,102512.25
2022-12-03T12:11:16.829Z,102512.91
2022-12-03T12:13:57.932Z,102511.66
2022-12-03T12:16:50.682Z,102514.13
2022-12-03T12:19:52.729Z,102522.34
2022-12-03T12:22:40.868Z,102533.75
2022-12-03T12:25:38.703Z,102520.75
2022-12-03T12:28:08.650Z,102522.97
2022-12-03T12:30:40.196Z,102524.22
2022-12-03T12:33:19.251Z,102525.53
2022-12-03T12:35:48.367Z,102525.53
2022-12-03T12:38:19.535Z,102524.59
2022-12-03T12:40:51.013Z,102527.72
2022-12-03T12:43:28.368Z,102533.09
2022-12-03T12:46:18.828Z,102526.72
2022-12-03T12:48:55.224Z,102524.84
2022-12-03T12:51:27.739Z,102528.66
2022-12-03T12:53:59.229Z,102529.88
2022-12-03T12:56:31.289Z,102528.94
2022-12-03T12:59:12.471Z,102535.56
2022-12-03T13:01:42.957Z,102531.44
2022-12-03T13:04:15.335Z,102532.38
2022-12-03T13:06:44.926Z,102531.44
2022-12-03T13:09:17.254Z,102530.47
2022-12-03T13:11:47.580Z,102533.28
2022-12-03T13:14:20.465Z,102528.50
2022-12-03T13:16:50.708Z,102531.66
2022-12-03T13:19:24.472Z,102528.50
2022-12-03T13:21:55.056Z,102540.19
2022-12-03T13:24:35.660Z,102535.75
2022-12-03T13:27:23.009Z,102539.84
2022-12-03T13:29:56.297Z,102530.97
2022-12-03T13:32:31.089Z,102538.56
2022-12-03T13:35:06.609Z,102539.19
2022-12-03T13:37:35.709Z,102533.41
2022-12-03T13:40:14.448Z,102537.78
2022-12-03T13:42:45.252Z,102536.50
2022-12-03T13:45:31.990Z,102542.50
2022-12-03T13:48:03.461Z,102543.13
2022-12-03T13:50:37.643Z,102539.53
2022-12-03T13:53:16.581Z,102544.00
2022-12-03T13:55:47.252Z,102540.84
2022-12-03T13:58:16.342Z,102542.81
2022-12-03T14:00:45.439Z,102538.97
2022-12-03T14:03:14.694Z,102540.84
2022-12-03T14:05:45.150Z,102536.13
2022-12-03T14:08:14.354Z,102540.84
2022-12-03T14:10:43.522Z,102543.38
2022-12-03T14:13:12.679Z,102541.50
2022-12-03T14:15:41.822Z,102536.44
2022-12-03T14:18:12.144Z,102541.84
2022-12-03T14:20:41.164Z,102536.44
2022-12-03T14:23:11.609Z,102542.44
2022-12-03T14:25:40.614Z,102540.84
2022-12-03T14:28:09.919Z,102550.38
2022-12-03T14:30:38.951Z,102546.84
2022-12-03T14:33:08.077Z,102545.53
2022-12-03T14:35:37.980Z,102549.34
2022-12-03T14:38:06.998Z,102547.75
2022-12-03T14:40:37.528Z,102547.41
2022-12-03T14:43:06.551Z,102547.13
2022-12-03T14:45:35.563Z,102546.53
2022-12-03T14:48:06.275Z,102544.59
2022-12-03T14:50:35.545Z,102553.16
2022-12-03T14:53:04.723Z,102549.06
2022-12-03T14:55:34.188Z,102549.66
2022-12-03T14:58:04.894Z,102559.16
2022-12-03T15:00:33.977Z,102554.75
2022-12-03T15:03:03.163Z,102556.63
2022-12-03T15:05:32.451Z,102565.50
2022-12-03T15:08:01.645Z,102564.19
2022-12-03T15:10:30.978Z,102558.50
2022-12-03T15:13:00.162Z,102558.78
2022-12-03T15:15:30.783Z,102554.66
2022-12-03T15:18:00.225Z,102557.84
2022-12-03T15:20:30.072Z,102552.78
2022-12-03T15:22:59.507Z,102559.41
2022-12-03T15:25:28.855Z,102557.81
2022-12-03T15:27:58.033Z,102555.28
2022-12-03T15:30:27.709Z,102556.84
2022-12-03T15:32:58.217Z,102558.41
2022-12-03T15:35:27.275Z,102558.38
2022-12-03T15:38:00.044Z,102561.19
2022-12-03T15:40:30.063Z,102560.25
2022-12-03T15:42:59.286Z,102571.00
2022-12-03T15:45:28.420Z,102568.09
2022-12-03T15:47:59.163Z,102570.22
2022-12-03T15:50:28.689Z,102565.22
2022-12-03T15:52:58.504Z,102572.56
2022-12-03T15:55:28.127Z,102567.81
2022-12-03T15:58:01.425Z,102571.00
2022-12-03T16:00:30.623Z,102583.03
2022-12-03T16:03:01.069Z,102588.19
2022-12-03T16:05:30.235Z,102580.28
2022-12-03T16:07:59.323Z,102581.25
2022-12-03T16:10:28.452Z,102579.38
2022-12-03T16:13:01.794Z,102584.13
2022-12-03T16:15:31.909Z,102596.50
2022-12-03T16:18:03.063Z,102592.75
2022-12-03T16:20:32.445Z,102595.97
2022-12-03T16:23:01.512Z,102593.47
2022-12-03T16:25:30.719Z,102606.53
2022-12-03T16:28:00.048Z,102609.47
2022-12-03T16:30:29.419Z,102613.59
2022-12-03T16:32:59.162Z,102606.31
2022-12-03T16:35:29.865Z,102610.75
2022-12-03T16:37:59.248Z,102606.06
2022-12-03T16:40:29.029Z,102605.44
2022-12-03T16:42:59.180Z,102608.31
2022-12-03T16:45:51.610Z,102614.34
2022-12-03T16:48:20.911Z,102607.09
2022-12-03T16:50:51.524Z,102597.91
2022-12-03T16:53:23.519Z,102601.41
2022-12-03T16:55:52.790Z,102595.72
2022-12-03T16:58:23.500Z,102603.31
2022-12-03T17:00:54.461Z,102595.41
2022-12-03T17:03:28.966Z,102597.03
2022-12-03T17:06:04.436Z,102603.34
2022-12-03T17:08:33.699Z,102601.47
2022-12-03T17:11:05.316Z,102607.47
2022-12-03T17:13:34.525Z,102602.09
2022-12-03T17:16:13.068Z,102599.56
2022-12-03T17:18:42.653Z,102600.81
2022-12-03T17:21:13.379Z,102604.94
2022-12-03T17:23:42.496Z,102598.28
2022-12-03T17:26:11.707Z,102598.25
2022-12-03T17:28:40.961Z,102599.53
2022-12-03T17:31:10.453Z,102601.44
2022-12-03T17:33:40.438Z,102603.63
2022-12-03T17:36:10.219Z,102611.56
2022-12-03T17:38:40.818Z,102609.31
2022-12-03T17:41:09.937Z,102604.59
2022-12-03T17:43:39.538Z,102606.50
2022-12-03T17:46:08.959Z,102611.22
2022-12-03T17:48:38.182Z,102610.31
2022-12-03T17:51:07.664Z,102609.03
2022-12-03T17:53:36.735Z,102607.75
2022-12-03T17:56:07.875Z,102609.03
2022-12-03T17:58:37.148Z,102614.09
2022-12-03T18:01:08.719Z,102607.75
2022-12-03T18:03:37.981Z,102601.44
2022-12-03T18:06:07.786Z,102601.44
2022-12-03T18:08:36.945Z,102602.38
2022-12-03T18:11:07.599Z,102604.94
2022-12-03T18:13:36.610Z,102607.75
2022-12-03T18:16:06.455Z,102611.56
2022-12-03T18:18:35.628Z,102615.38
2022-12-03T18:21:04.931Z,102618.88
2022-12-03T18:23:34.089Z,102616.66
2022-12-03T18:26:03.958Z,102616.66
2022-12-03T18:28:34.549Z,102619.16
2022-12-03T18:31:03.764Z,102624.22
2022-12-03T18:33:32.790Z,102623.00
2022-12-03T18:36:02.002Z,102617.59
2022-12-03T18:38:34.419Z,102617.94
2022-12-03T18:41:03.620Z,102616.06
2022-12-03T18:43:34.550Z,102605.97
2022-12-03T18:46:05.574Z,102614.81
2022-12-03T18:48:34.867Z,102621.16
2022-12-03T18:51:03.894Z,102617.03
2022-12-03T18:53:33.034Z,102625.28
2022-12-03T18:56:02.113Z,102631.91
2022-12-03T18:58:31.396Z,102627.16
2022-12-03T19:01:02.905Z,102625.56
2022-12-03T19:03:32.570Z,102630.34
2022-12-03T19:06:01.866Z,102636.34
2022-12-03T19:08:30.914Z,102636.34
2022-12-03T19:11:01.574Z,102644.22
2022-12-03T19:13:30.723Z,102635.41
2022-12-03T19:16:05.220Z,102632.22
2022-12-03T19:18:34.537Z,102641.06
2022-12-03T19:21:08.518Z,102631.91
2022-12-03T19:23:37.989Z,102634.78
2022-12-03T19:26:08.891Z,102640.78
2022-12-03T19:28:38.142Z,102641.41
2022-12-03T19:31:12.226Z,102640.09
2022-12-03T19:33:42.488Z,102645.53
2022-12-03T19:36:23.266Z,102643.28
2022-12-03T19:38:56.969Z,102638.84
2022-12-03T19:41:28.157Z,102640.09
2022-12-03T19:43:58.192Z,102639.53
2022-12-03T19:46:30.505Z,102646.50
2022-12-03T19:48:59.711Z,102652.81
2022-12-03T19:51:36.362Z,102647.72
2022-12-03T19:54:06.903Z,102648.66
2022-12-03T19:56:36.206Z,102649.97
2022-12-03T19:59:05.536Z,102646.50
2022-12-03T20:01:40.369Z,102649.66
2022-12-03T20:04:09.854Z,102640.81
2022-12-03T20:06:39.620Z,102636.69
2022-12-03T20:09:12.069Z,102640.16
2022-12-03T20:11:44.588Z,102644.56
2022-12-03T20:14:15.855Z,102645.22
2022-12-03T20:16:46.836Z,102657.88
2022-12-03T20:19:18.951Z,102654.13
2022-12-03T20:21:48.099Z,102651.59
2022-12-03T20:24:19.387Z,102651.56
2022-12-03T20:26:48.460Z,102655.09
2022-12-03T20:29:18.067Z,102657.00
2022-12-03T20:31:48.548Z,102649.38
2022-12-03T20:34:17.731Z,102652.56
2022-12-03T20:36:46.925Z,102657.94
2022-12-03T20:39:15.919Z,102654.13
2022-12-03T20:41:44.866Z,102647.84
2022-12-03T20:44:14.071Z,102652.91
2022-12-03T20:46:43.084Z,102654.16
2022-12-03T20:49:13.595Z,102658.00
2022-12-03T20:51:43.083Z,102652.28
2022-12-03T20:54:12.095Z,102656.06
2022-12-03T20:56:42.158Z,102655.47
2022-12-03T20:59:13.490Z,102652.97
2022-12-03T21:01:43.402Z,102645.69
2022-12-03T21:04:16.166Z,102653.56
2022-12-03T21:06:46.330Z,102649.81
2022-12-03T21:09:15.342Z,102646.00
2022-12-03T21:11:45.411Z,102643.78
2022-12-03T21:14:14.375Z,102640.31
2022-12-03T21:19:39.549Z,102644.78
2022-12-03T21:22:08.934Z,102647.66
2022-12-03T21:24:37.852Z,102650.47
2022-12-03T21:27:06.850Z,102647.97
2022-12-03T21:29:35.793Z,102647.03
2022-12-03T21:32:04.947Z,102651.16
2022-12-03T21:34:36.413Z,102653.66
2022-12-03T21:37:07.315Z,102655.56
2022-12-03T21:39:36.459Z,102649.25
2022-12-03T21:42:22.372Z,102654.00
2022-12-03T21:44:54.835Z,102653.03
2022-12-03T21:47:23.919Z,102662.53
2022-12-03T21:49:53.297Z,102662.19
2022-12-03T21:52:24.002Z,102659.38
2022-12-03T21:54:53.815Z,102664.09
2022-12-03T21:57:23.021Z,102669.13
2022-12-03T21:59:51.993Z,102662.53
2022-12-03T22:02:21.123Z,102655.59
2022-12-03T22:04:51.935Z,102658.41
2022-12-03T22:07:21.219Z,102654.88
2022-12-03T22:09:51.769Z,102652.97
2022-12-03T22:12:20.893Z,102654.84
2022-12-03T22:14:49.907Z,102647.88
2022-12-03T22:17:18.848Z,102660.13
2022-12-03T22:19:47.980Z,102659.81
2022-12-03T22:22:17.031Z,102662.88
2022-12-03T22:24:46.914Z,102662.84
2022-12-03T22:27:17.336Z,102662.84
2022-12-03T22:29:46.337Z,102659.69
2022-12-03T22:32:15.665Z,102657.78
2022-12-03T22:34:45.037Z,102656.19
2022-12-03T22:37:14.061Z,102659.63
2022-12-03T22:39:43.055Z,102653.91
2022-12-03T22:42:12.193Z,102655.47
2022-12-03T22:44:42.654Z,102656.13
2022-12-03T22:47:11.601Z,102656.72
2022-12-03T22:49:40.569Z,102658.59
2022-12-03T22:52:10.039Z,102664.19
2022-12-03T22:54:38.995Z,102666.69
2022-12-03T22:57:07.942Z,102663.88
2022-12-03T22:59:36.912Z,102658.81
2022-12-03T23:02:07.302Z,102665.69
2022-12-03T23:04:36.386Z,102655.91
2022-12-03T23:07:07.068Z,102671.63
2022-12-03T23:09:36.048Z,102671.63
2022-12-03T23:12:05.247Z,102673.22
2022-12-03T23:14:34.270Z,102669.44
2022-12-03T23:17:03.213Z,102668.81
2022-12-03T23:19:33.570Z,102673.81
2022-12-03T23:22:02.537Z,102673.75
2022-12-03T23:24:31.884Z,102666.84
2022-12-03T23:27:00.925Z,102670.00
2022-12-03T23:29:29.885Z,102671.81
2022-12-03T23:31:58.955Z,102670.22
2022-12-03T23:34:28.285Z,102666.72
2022-12-03T23:36:58.921Z,102669.22
2022-12-03T23:39:27.957Z,102677.97
2022-12-03T23:41:56.889Z,102672.31
2022-12-03T23:44:25.840Z,102677.63
2022-12-03T23:46:54.853Z,102669.13
2022-12-03T23:49:23.782Z,102671.66
2022-12-03T23:51:52.769Z,102669.13
2022-12-03T23:54:23.327Z,102667.22
2022-12-03T23:56:52.301Z,102673.50
2022-12-03T23:59:21.429Z,102678.50
